sensor_id;sensor_type;location;lat;lon;timestamp;P1;durP1;ratioP1;P2;durP2;ratioP2
11171;SDS011;5642;50.830;12.082;2023-04-05T00:01:56;1.87;;;1.50;;
11171;SDS011;5642;50.830;12.082;2023-04-05T00:04:23;2.33;;;2.13;;
11171;SDS011;5642;50.830;12.082;2023-04-05T00:06:51;2.10;;;1.90;;
11171;SDS011;5642;50.830;12.082;2023-04-05T00:09:19;2.33;;;2.07;;
11171;SDS011;5642;50.830;12.082;2023-04-05T00:11:45;2.37;;;2.07;;
11171;SDS011;5642;50.830;12.082;2023-04-05T00:14:12;2.43;;;2.20;;
11171;SDS011;5642;50.830;12.082;2023-04-05T00:16:38;2.87;;;2.23;;
11171;SDS011;5642;50.830;12.082;2023-04-05T00:19:05;2.67;;;2.30;;
11171;SDS011;5642;50.830;12.082;2023-04-05T00:21:31;2.40;;;2.20;;
11171;SDS011;5642;50.830;12.082;2023-04-05T00:23:57;3.00;;;2.33;;
11171;SDS011;5642;50.830;12.082;2023-04-05T00:26:24;2.67;;;2.00;;
11171;SDS011;5642;50.830;12.082;2023-04-05T00:28:52;2.30;;;2.10;;
11171;SDS011;5642;50.830;12.082;2023-04-05T00:31:18;2.43;;;2.17;;
11171;SDS011;5642;50.830;12.082;2023-04-05T00:33:44;2.50;;;2.30;;
11171;SDS011;5642;50.830;12.082;2023-04-05T00:36:18;2.63;;;2.30;;
11171;SDS011;5642;50.830;12.082;2023-04-05T00:38:46;2.23;;;2.03;;
11171;SDS011;5642;50.830;12.082;2023-04-05T00:41:14;2.30;;;2.10;;
11171;SDS011;5642;50.830;12.082;2023-04-05T00:43:45;1.90;;;1.70;;
11171;SDS011;5642;50.830;12.082;2023-04-05T00:46:11;2.03;;;1.93;;
11171;SDS011;5642;50.830;12.082;2023-04-05T00:48:38;1.80;;;1.70;;
11171;SDS011;5642;50.830;12.082;2023-04-05T00:51:04;2.47;;;2.00;;
11171;SDS011;5642;50.830;12.082;2023-04-05T00:53:34;1.80;;;1.57;;
11171;SDS011;5642;50.830;12.082;2023-04-05T00:56:02;3.03;;;1.80;;
11171;SDS011;5642;50.830;12.082;2023-04-05T00:58:29;2.30;;;2.10;;
11171;SDS011;5642;50.830;12.082;2023-04-05T01:03:47;1.70;;;1.60;;
11171;SDS011;5642;50.830;12.082;2023-04-05T01:09:21;1.67;;;1.57;;
11171;SDS011;5642;50.830;12.082;2023-04-05T01:12:11;2.10;;;1.90;;
11171;SDS011;5642;50.830;12.082;2023-04-05T01:14:53;2.27;;;2.03;;
11171;SDS011;5642;50.830;12.082;2023-04-05T01:17:22;1.70;;;1.60;;
11171;SDS011;5642;50.830;12.082;2023-04-05T01:19:56;1.90;;;1.80;;
11171;SDS011;5642;50.830;12.082;2023-04-05T01:37:28;1.73;;;1.63;;
11171;SDS011;5642;50.830;12.082;2023-04-05T01:39:57;1.87;;;1.73;;
11171;SDS011;5642;50.830;12.082;2023-04-05T01:42:29;1.77;;;1.67;;
11171;SDS011;5642;50.830;12.082;2023-04-05T01:44:56;1.80;;;1.70;;
11171;SDS011;5642;50.830;12.082;2023-04-05T01:47:25;1.83;;;1.73;;
11171;SDS011;5642;50.830;12.082;2023-04-05T01:49:51;1.70;;;1.60;;
11171;SDS011;5642;50.830;12.082;2023-04-05T01:52:17;2.40;;;1.80;;
11171;SDS011;5642;50.830;12.082;2023-04-05T01:54:44;2.37;;;1.83;;
11171;SDS011;5642;50.830;12.082;2023-04-05T01:57:11;1.97;;;1.57;;
11171;SDS011;5642;50.830;12.082;2023-04-05T01:59:39;2.10;;;1.90;;
11171;SDS011;5642;50.830;12.082;2023-04-05T02:02:06;2.00;;;1.80;;
11171;SDS011;5642;50.830;12.082;2023-04-05T02:04:34;2.17;;;1.80;;
11171;SDS011;5642;50.830;12.082;2023-04-05T02:07:01;2.17;;;1.83;;
11171;SDS011;5642;50.830;12.082;2023-04-05T02:09:29;2.07;;;1.90;;
11171;SDS011;5642;50.830;12.082;2023-04-05T02:11:57;2.03;;;1.83;;
11171;SDS011;5642;50.830;12.082;2023-04-05T02:14:24;1.63;;;1.53;;
11171;SDS011;5642;50.830;12.082;2023-04-05T02:16:51;2.30;;;2.10;;
11171;SDS011;5642;50.830;12.082;2023-04-05T02:19:24;1.80;;;1.70;;
11171;SDS011;5642;50.830;12.082;2023-04-05T02:21:56;2.20;;;2.00;;
11171;SDS011;5642;50.830;12.082;2023-04-05T02:24:23;2.17;;;1.97;;
11171;SDS011;5642;50.830;12.082;2023-04-05T02:26:52;2.23;;;2.03;;
11171;SDS011;5642;50.830;12.082;2023-04-05T02:29:19;2.00;;;1.80;;
11171;SDS011;5642;50.830;12.082;2023-04-05T02:31:45;2.17;;;1.97;;
11171;SDS011;5642;50.830;12.082;2023-04-05T02:34:12;2.20;;;1.80;;
11171;SDS011;5642;50.830;12.082;2023-04-05T02:36:38;2.20;;;2.00;;
11171;SDS011;5642;50.830;12.082;2023-04-05T02:39:08;2.17;;;1.97;;
11171;SDS011;5642;50.830;12.082;2023-04-05T02:41:35;2.27;;;2.00;;
11171;SDS011;5642;50.830;12.082;2023-04-05T02:44:03;2.07;;;1.87;;
11171;SDS011;5642;50.830;12.082;2023-04-05T02:46:30;2.10;;;1.90;;
11171;SDS011;5642;50.830;12.082;2023-04-05T02:48:56;1.93;;;1.83;;
11171;SDS011;5642;50.830;12.082;2023-04-05T02:51:25;1.57;;;1.47;;
11171;SDS011;5642;50.830;12.082;2023-04-05T02:53:52;1.60;;;1.50;;
11171;SDS011;5642;50.830;12.082;2023-04-05T02:56:19;1.60;;;1.50;;
11171;SDS011;5642;50.830;12.082;2023-04-05T02:58:49;1.73;;;1.63;;
11171;SDS011;5642;50.830;12.082;2023-04-05T03:01:16;2.17;;;1.98;;
11171;SDS011;5642;50.830;12.082;2023-04-05T03:03:42;2.08;;;1.80;;
11171;SDS011;5642;50.830;12.082;2023-04-05T03:06:09;1.87;;;1.60;;
11171;SDS011;5642;50.830;12.082;2023-04-05T03:08:39;2.10;;;1.83;;
11171;SDS011;5642;50.830;12.082;2023-04-05T03:11:10;2.07;;;1.87;;
11171;SDS011;5642;50.830;12.082;2023-04-05T03:13:36;1.90;;;1.70;;
11171;SDS011;5642;50.830;12.082;2023-04-05T03:16:02;2.00;;;1.77;;
11171;SDS011;5642;50.830;12.082;2023-04-05T03:18:29;1.90;;;1.73;;
11171;SDS011;5642;50.830;12.082;2023-04-05T03:20:56;1.70;;;1.60;;
11171;SDS011;5642;50.830;12.082;2023-04-05T03:23:26;2.50;;;1.90;;
11171;SDS011;5642;50.830;12.082;2023-04-05T03:26:01;1.80;;;1.50;;
11171;SDS011;5642;50.830;12.082;2023-04-05T03:28:29;1.77;;;1.67;;
11171;SDS011;5642;50.830;12.082;2023-04-05T03:31:00;1.73;;;1.63;;
11171;SDS011;5642;50.830;12.082;2023-04-05T03:33:27;1.93;;;1.67;;
11171;SDS011;5642;50.830;12.082;2023-04-05T03:35:56;1.90;;;1.70;;
11171;SDS011;5642;50.830;12.082;2023-04-05T03:38:23;1.90;;;1.73;;
11171;SDS011;5642;50.830;12.082;2023-04-05T03:40:50;1.83;;;1.67;;
11171;SDS011;5642;50.830;12.082;2023-04-05T03:43:17;2.33;;;1.87;;
11171;SDS011;5642;50.830;12.082;2023-04-05T03:45:44;2.07;;;1.87;;
11171;SDS011;5642;50.830;12.082;2023-04-05T03:48:11;1.90;;;1.80;;
11171;SDS011;5642;50.830;12.082;2023-04-05T03:50:37;1.80;;;1.67;;
11171;SDS011;5642;50.830;12.082;2023-04-05T03:53:06;2.10;;;1.90;;
11171;SDS011;5642;50.830;12.082;2023-04-05T03:55:34;1.80;;;1.70;;
11171;SDS011;5642;50.830;12.082;2023-04-05T03:58:00;1.70;;;1.60;;
11171;SDS011;5642;50.830;12.082;2023-04-05T04:00:27;1.90;;;1.80;;
11171;SDS011;5642;50.830;12.082;2023-04-05T04:02:54;2.10;;;1.77;;
11171;SDS011;5642;50.830;12.082;2023-04-05T04:05:20;2.10;;;1.70;;
11171;SDS011;5642;50.830;12.082;2023-04-05T04:07:47;1.93;;;1.80;;
11171;SDS011;5642;50.830;12.082;2023-04-05T04:10:14;1.77;;;1.67;;
11171;SDS011;5642;50.830;12.082;2023-04-05T04:12:47;1.70;;;1.60;;
11171;SDS011;5642;50.830;12.082;2023-04-05T04:15:13;2.20;;;1.70;;
11171;SDS011;5642;50.830;12.082;2023-04-05T04:17:41;1.80;;;1.60;;
11171;SDS011;5642;50.830;12.082;2023-04-05T04:20:09;1.70;;;1.60;;
11171;SDS011;5642;50.830;12.082;2023-04-05T04:22:36;1.67;;;1.57;;
11171;SDS011;5642;50.830;12.082;2023-04-05T04:25:08;1.50;;;1.40;;
11171;SDS011;5642;50.830;12.082;2023-04-05T04:27:36;1.50;;;1.40;;
11171;SDS011;5642;50.830;12.082;2023-04-05T04:30:07;1.73;;;1.63;;
11171;SDS011;5642;50.830;12.082;2023-04-05T04:32:36;1.97;;;1.60;;
11171;SDS011;5642;50.830;12.082;2023-04-05T04:35:21;1.63;;;1.53;;
11171;SDS011;5642;50.830;12.082;2023-04-05T04:37:52;1.80;;;1.70;;
11171;SDS011;5642;50.830;12.082;2023-04-05T04:40:26;1.70;;;1.60;;
11171;SDS011;5642;50.830;12.082;2023-04-05T04:42:55;1.67;;;1.57;;
11171;SDS011;5642;50.830;12.082;2023-04-05T04:45:23;1.53;;;1.43;;
11171;SDS011;5642;50.830;12.082;2023-04-05T04:47:52;1.93;;;1.57;;
11171;SDS011;5642;50.830;12.082;2023-04-05T04:50:19;1.70;;;1.60;;
11171;SDS011;5642;50.830;12.082;2023-04-05T04:52:46;1.63;;;1.50;;
11171;SDS011;5642;50.830;12.082;2023-04-05T04:55:12;1.87;;;1.63;;
11171;SDS011;5642;50.830;12.082;2023-04-05T04:57:39;1.73;;;1.60;;
11171;SDS011;5642;50.830;12.082;2023-04-05T05:00:09;1.97;;;1.57;;
11171;SDS011;5642;50.830;12.082;2023-04-05T05:02:40;2.13;;;1.57;;
11171;SDS011;5642;50.830;12.082;2023-04-05T05:05:07;2.00;;;1.80;;
11171;SDS011;5642;50.830;12.082;2023-04-05T05:07:34;1.87;;;1.47;;
11171;SDS011;5642;50.830;12.082;2023-04-05T05:10:01;2.07;;;1.60;;
11171;SDS011;5642;50.830;12.082;2023-04-05T05:12:29;1.70;;;1.60;;
11171;SDS011;5642;50.830;12.082;2023-04-05T05:14:56;1.93;;;1.83;;
11171;SDS011;5642;50.830;12.082;2023-04-05T05:17:22;1.67;;;1.57;;
11171;SDS011;5642;50.830;12.082;2023-04-05T05:19:48;1.77;;;1.67;;
11171;SDS011;5642;50.830;12.082;2023-04-05T05:22:16;1.80;;;1.70;;
11171;SDS011;5642;50.830;12.082;2023-04-05T05:24:43;1.73;;;1.63;;
11171;SDS011;5642;50.830;12.082;2023-04-05T05:27:10;1.87;;;1.77;;
11171;SDS011;5642;50.830;12.082;2023-04-05T05:29:37;1.73;;;1.63;;
11171;SDS011;5642;50.830;12.082;2023-04-05T05:32:04;1.60;;;1.50;;
11171;SDS011;5642;50.830;12.082;2023-04-05T05:34:32;1.63;;;1.53;;
11171;SDS011;5642;50.830;12.082;2023-04-05T05:36:58;1.90;;;1.80;;
11171;SDS011;5642;50.830;12.082;2023-04-05T05:39:24;1.97;;;1.83;;
11171;SDS011;5642;50.830;12.082;2023-04-05T05:41:51;1.70;;;1.60;;
11171;SDS011;5642;50.830;12.082;2023-04-05T05:44:17;1.70;;;1.60;;
11171;SDS011;5642;50.830;12.082;2023-04-05T05:46:43;1.70;;;1.60;;
11171;SDS011;5642;50.830;12.082;2023-04-05T05:49:09;1.70;;;1.60;;
11171;SDS011;5642;50.830;12.082;2023-04-05T05:51:36;1.87;;;1.70;;
11171;SDS011;5642;50.830;12.082;2023-04-05T05:54:02;2.60;;;1.90;;
11171;SDS011;5642;50.830;12.082;2023-04-05T05:56:28;1.80;;;1.70;;
11171;SDS011;5642;50.830;12.082;2023-04-05T05:58:55;1.77;;;1.67;;
11171;SDS011;5642;50.830;12.082;2023-04-05T06:01:21;1.70;;;1.60;;
11171;SDS011;5642;50.830;12.082;2023-04-05T06:03:52;1.70;;;1.60;;
11171;SDS011;5642;50.830;12.082;2023-04-05T06:06:22;1.52;;;1.42;;
11171;SDS011;5642;50.830;12.082;2023-04-05T06:08:48;1.85;;;1.75;;
11171;SDS011;5642;50.830;12.082;2023-04-05T06:11:18;2.53;;;1.90;;
11171;SDS011;5642;50.830;12.082;2023-04-05T06:13:46;2.72;;;1.77;;
11171;SDS011;5642;50.830;12.082;2023-04-05T06:16:12;3.13;;;2.20;;
11171;SDS011;5642;50.830;12.082;2023-04-05T06:18:38;2.22;;;1.77;;
11171;SDS011;5642;50.830;12.082;2023-04-05T06:21:05;2.30;;;2.10;;
11171;SDS011;5642;50.830;12.082;2023-04-05T06:23:31;2.13;;;1.92;;
11171;SDS011;5642;50.830;12.082;2023-04-05T06:25:59;1.95;;;1.85;;
11171;SDS011;5642;50.830;12.082;2023-04-05T06:28:25;2.22;;;2.03;;
11171;SDS011;5642;50.830;12.082;2023-04-05T06:30:52;1.88;;;1.77;;
11171;SDS011;5642;50.830;12.082;2023-04-05T06:33:19;2.22;;;2.03;;
11171;SDS011;5642;50.830;12.082;2023-04-05T06:35:47;2.15;;;1.83;;
11171;SDS011;5642;50.830;12.082;2023-04-05T06:38:14;1.92;;;1.80;;
11171;SDS011;5642;50.830;12.082;2023-04-05T06:40:41;2.30;;;2.10;;
11171;SDS011;5642;50.830;12.082;2023-04-05T06:43:08;2.13;;;1.92;;
11171;SDS011;5642;50.830;12.082;2023-04-05T06:45:35;2.10;;;1.95;;
11171;SDS011;5642;50.830;12.082;2023-04-05T06:48:06;2.20;;;2.00;;
11171;SDS011;5642;50.830;12.082;2023-04-05T06:50:32;1.70;;;1.60;;
11171;SDS011;5642;50.830;12.082;2023-04-05T06:53:09;2.08;;;1.98;;
11171;SDS011;5642;50.830;12.082;2023-04-05T06:55:40;1.90;;;1.70;;
11171;SDS011;5642;50.830;12.082;2023-04-05T06:58:07;1.90;;;1.52;;
11171;SDS011;5642;50.830;12.082;2023-04-05T07:00:33;1.80;;;1.70;;
11171;SDS011;5642;50.830;12.082;2023-04-05T07:02:59;1.67;;;1.58;;
11171;SDS011;5642;50.830;12.082;2023-04-05T07:05:25;1.60;;;1.50;;
11171;SDS011;5642;50.830;12.082;2023-04-05T07:07:51;1.63;;;1.52;;
11171;SDS011;5642;50.830;12.082;2023-04-05T07:10:17;1.40;;;1.30;;
11171;SDS011;5642;50.830;12.082;2023-04-05T07:12:44;1.50;;;1.40;;
11171;SDS011;5642;50.830;12.082;2023-04-05T07:15:10;1.58;;;1.48;;
11171;SDS011;5642;50.830;12.082;2023-04-05T07:17:38;1.55;;;1.45;;
11171;SDS011;5642;50.830;12.082;2023-04-05T07:20:07;1.70;;;1.60;;
11171;SDS011;5642;50.830;12.082;2023-04-05T07:22:34;1.40;;;1.30;;
11171;SDS011;5642;50.830;12.082;2023-04-05T07:25:00;1.42;;;1.33;;
11171;SDS011;5642;50.830;12.082;2023-04-05T07:27:28;1.50;;;1.40;;
11171;SDS011;5642;50.830;12.082;2023-04-05T07:29:55;1.55;;;1.27;;
11171;SDS011;5642;50.830;12.082;2023-04-05T07:32:22;1.70;;;1.60;;
11171;SDS011;5642;50.830;12.082;2023-04-05T07:34:48;1.55;;;1.45;;
11171;SDS011;5642;50.830;12.082;2023-04-05T07:37:14;1.77;;;1.63;;
11171;SDS011;5642;50.830;12.082;2023-04-05T07:39:40;1.40;;;1.30;;
11171;SDS011;5642;50.830;12.082;2023-04-05T07:42:06;1.60;;;1.50;;
11171;SDS011;5642;50.830;12.082;2023-04-05T07:44:33;1.60;;;1.50;;
11171;SDS011;5642;50.830;12.082;2023-04-05T07:46:59;2.38;;;1.55;;
11171;SDS011;5642;50.830;12.082;2023-04-05T07:49:25;1.52;;;1.42;;
11171;SDS011;5642;50.830;12.082;2023-04-05T07:51:55;1.90;;;1.80;;
11171;SDS011;5642;50.830;12.082;2023-04-05T07:54:22;1.75;;;1.40;;
11171;SDS011;5642;50.830;12.082;2023-04-05T07:56:49;1.65;;;1.50;;
11171;SDS011;5642;50.830;12.082;2023-04-05T07:59:16;2.50;;;1.60;;
11171;SDS011;5642;50.830;12.082;2023-04-05T08:01:42;1.85;;;1.73;;
11171;SDS011;5642;50.830;12.082;2023-04-05T08:04:08;1.80;;;1.70;;
11171;SDS011;5642;50.830;12.082;2023-04-05T08:06:34;1.88;;;1.77;;
11171;SDS011;5642;50.830;12.082;2023-04-05T08:09:01;1.52;;;1.42;;
11171;SDS011;5642;50.830;12.082;2023-04-05T08:11:31;1.85;;;1.75;;
11171;SDS011;5642;50.830;12.082;2023-04-05T08:13:57;1.65;;;1.55;;
11171;SDS011;5642;50.830;12.082;2023-04-05T08:16:24;1.60;;;1.50;;
11171;SDS011;5642;50.830;12.082;2023-04-05T08:18:51;1.70;;;1.60;;
11171;SDS011;5642;50.830;12.082;2023-04-05T08:21:17;1.50;;;1.40;;
11171;SDS011;5642;50.830;12.082;2023-04-05T08:23:43;2.00;;;1.60;;
11171;SDS011;5642;50.830;12.082;2023-04-05T08:26:09;1.30;;;1.25;;
11171;SDS011;5642;50.830;12.082;2023-04-05T08:28:36;1.38;;;1.27;;
11171;SDS011;5642;50.830;12.082;2023-04-05T08:31:10;1.00;;;1.00;;
11171;SDS011;5642;50.830;12.082;2023-04-05T08:33:36;1.60;;;1.27;;
11171;SDS011;5642;50.830;12.082;2023-04-05T08:36:03;1.15;;;1.05;;
11171;SDS011;5642;50.830;12.082;2023-04-05T08:38:30;1.30;;;1.20;;
11171;SDS011;5642;50.830;12.082;2023-04-05T08:40:56;1.45;;;1.00;;
11171;SDS011;5642;50.830;12.082;2023-04-05T08:45:58;1.00;;;1.00;;
11171;SDS011;5642;50.830;12.082;2023-04-05T08:48:25;1.20;;;1.10;;
11171;SDS011;5642;50.830;12.082;2023-04-05T08:50:56;0.75;;;0.75;;
11171;SDS011;5642;50.830;12.082;2023-04-05T08:53:22;0.80;;;0.80;;
11171;SDS011;5642;50.830;12.082;2023-04-05T08:55:49;0.70;;;0.70;;
11171;SDS011;5642;50.830;12.082;2023-04-05T08:58:22;0.68;;;0.68;;
11171;SDS011;5642;50.830;12.082;2023-04-05T09:00:50;0.65;;;0.65;;
11171;SDS011;5642;50.830;12.082;2023-04-05T09:03:20;1.38;;;0.63;;
11171;SDS011;5642;50.830;12.082;2023-04-05T09:05:49;0.63;;;0.63;;
11171;SDS011;5642;50.830;12.082;2023-04-05T09:08:17;1.05;;;0.70;;
11171;SDS011;5642;50.830;12.082;2023-04-05T09:10:47;0.40;;;0.40;;
11171;SDS011;5642;50.830;12.082;2023-04-05T09:13:16;0.60;;;0.50;;
11171;SDS011;5642;50.830;12.082;2023-04-05T09:15:42;0.47;;;0.47;;
11171;SDS011;5642;50.830;12.082;2023-04-05T09:18:09;0.60;;;0.60;;
11171;SDS011;5642;50.830;12.082;2023-04-05T09:20:36;0.65;;;0.65;;
11171;SDS011;5642;50.830;12.082;2023-04-05T09:23:02;0.60;;;0.60;;
11171;SDS011;5642;50.830;12.082;2023-04-05T09:27:58;0.60;;;0.60;;
11171;SDS011;5642;50.830;12.082;2023-04-05T09:30:25;0.43;;;0.43;;
11171;SDS011;5642;50.830;12.082;2023-04-05T09:32:54;0.50;;;0.50;;
11171;SDS011;5642;50.830;12.082;2023-04-05T09:35:21;0.70;;;0.70;;
11171;SDS011;5642;50.830;12.082;2023-04-05T09:37:52;0.45;;;0.45;;
11171;SDS011;5642;50.830;12.082;2023-04-05T09:40:20;0.55;;;0.55;;
11171;SDS011;5642;50.830;12.082;2023-04-05T09:42:48;0.50;;;0.50;;
11171;SDS011;5642;50.830;12.082;2023-04-05T09:45:14;0.57;;;0.57;;
11171;SDS011;5642;50.830;12.082;2023-04-05T09:47:52;0.60;;;0.60;;
11171;SDS011;5642;50.830;12.082;2023-04-05T09:50:20;0.60;;;0.60;;
11171;SDS011;5642;50.830;12.082;2023-04-05T09:52:46;0.70;;;0.70;;
11171;SDS011;5642;50.830;12.082;2023-04-05T09:55:17;0.57;;;0.57;;
11171;SDS011;5642;50.830;12.082;2023-04-05T09:57:52;0.70;;;0.70;;
11171;SDS011;5642;50.830;12.082;2023-04-05T10:00:20;0.50;;;0.50;;
11171;SDS011;5642;50.830;12.082;2023-04-05T10:02:51;0.57;;;0.57;;
11171;SDS011;5642;50.830;12.082;2023-04-05T10:05:18;0.60;;;0.60;;
11171;SDS011;5642;50.830;12.082;2023-04-05T10:07:49;0.47;;;0.47;;
11171;SDS011;5642;50.830;12.082;2023-04-05T10:10:16;0.70;;;0.45;;
11171;SDS011;5642;50.830;12.082;2023-04-05T10:12:42;0.75;;;0.50;;
11171;SDS011;5642;50.830;12.082;2023-04-05T10:15:14;0.52;;;0.52;;
11171;SDS011;5642;50.830;12.082;2023-04-05T10:17:48;0.60;;;0.60;;
11171;SDS011;5642;50.830;12.082;2023-04-05T10:20:21;0.60;;;0.60;;
11171;SDS011;5642;50.830;12.082;2023-04-05T10:23:05;0.65;;;0.60;;
11171;SDS011;5642;50.830;12.082;2023-04-05T10:28:28;0.50;;;0.50;;
11171;SDS011;5642;50.830;12.082;2023-04-05T10:34:06;0.50;;;0.50;;
11171;SDS011;5642;50.830;12.082;2023-04-05T10:42:01;0.50;;;0.50;;
11171;SDS011;5642;50.830;12.082;2023-04-05T10:44:45;0.80;;;0.80;;
11171;SDS011;5642;50.830;12.082;2023-04-05T10:47:16;0.70;;;0.70;;
11171;SDS011;5642;50.830;12.082;2023-04-05T10:49:48;0.75;;;0.65;;
11171;SDS011;5642;50.830;12.082;2023-04-05T10:52:20;0.75;;;0.75;;
11171;SDS011;5642;50.830;12.082;2023-04-05T10:54:47;0.73;;;0.73;;
11171;SDS011;5642;50.830;12.082;2023-04-05T10:57:14;0.80;;;0.80;;
11171;SDS011;5642;50.830;12.082;2023-04-05T10:59:44;0.70;;;0.70;;
11171;SDS011;5642;50.830;12.082;2023-04-05T11:02:13;1.40;;;0.85;;
11171;SDS011;5642;50.830;12.082;2023-04-05T11:04:43;0.70;;;0.70;;
11171;SDS011;5642;50.830;12.082;2023-04-05T11:07:15;0.68;;;0.68;;
11171;SDS011;5642;50.830;12.082;2023-04-05T11:10:17;1.13;;;0.90;;
11171;SDS011;5642;50.830;12.082;2023-04-05T11:20:41;0.75;;;0.75;;
11171;SDS011;5642;50.830;12.082;2023-04-05T11:23:19;1.80;;;0.90;;
11171;SDS011;5642;50.830;12.082;2023-04-05T11:25:48;0.93;;;0.82;;
11171;SDS011;5642;50.830;12.082;2023-04-05T11:28:22;1.02;;;0.95;;
11171;SDS011;5642;50.830;12.082;2023-04-05T11:30:51;0.85;;;0.85;;
11171;SDS011;5642;50.830;12.082;2023-04-05T11:36:09;1.20;;;1.13;;
11171;SDS011;5642;50.830;12.082;2023-04-05T11:38:35;1.20;;;1.10;;
11171;SDS011;5642;50.830;12.082;2023-04-05T11:41:16;1.10;;;1.10;;
11171;SDS011;5642;50.830;12.082;2023-04-05T11:43:42;1.15;;;0.90;;
11171;SDS011;5642;50.830;12.082;2023-04-05T11:46:14;0.90;;;0.90;;
11171;SDS011;5642;50.830;12.082;2023-04-05T11:48:41;0.80;;;0.80;;
11171;SDS011;5642;50.830;12.082;2023-04-05T11:51:08;0.90;;;0.88;;
11171;SDS011;5642;50.830;12.082;2023-04-05T11:53:37;1.25;;;1.15;;
11171;SDS011;5642;50.830;12.082;2023-04-05T11:56:10;1.00;;;0.90;;
11171;SDS011;5642;50.830;12.082;2023-04-05T11:58:40;0.80;;;0.80;;
11171;SDS011;5642;50.830;12.082;2023-04-05T12:01:07;0.88;;;0.88;;
11171;SDS011;5642;50.830;12.082;2023-04-05T12:03:34;0.98;;;0.98;;
11171;SDS011;5642;50.830;12.082;2023-04-05T12:06:02;0.98;;;0.98;;
11171;SDS011;5642;50.830;12.082;2023-04-05T12:08:42;1.20;;;1.10;;
11171;SDS011;5642;50.830;12.082;2023-04-05T12:11:22;1.38;;;1.05;;
11171;SDS011;5642;50.830;12.082;2023-04-05T12:13:57;0.80;;;0.80;;
11171;SDS011;5642;50.830;12.082;2023-04-05T12:16:25;0.98;;;0.98;;
11171;SDS011;5642;50.830;12.082;2023-04-05T12:18:55;0.75;;;0.73;;
11171;SDS011;5642;50.830;12.082;2023-04-05T12:21:24;0.88;;;0.88;;
11171;SDS011;5642;50.830;12.082;2023-04-05T12:23:51;1.02;;;0.90;;
11171;SDS011;5642;50.830;12.082;2023-04-05T12:26:18;0.80;;;0.80;;
11171;SDS011;5642;50.830;12.082;2023-04-05T12:28:49;1.85;;;0.90;;
11171;SDS011;5642;50.830;12.082;2023-04-05T12:34:09;1.10;;;0.93;;
11171;SDS011;5642;50.830;12.082;2023-04-05T12:36:36;1.00;;;0.93;;
11171;SDS011;5642;50.830;12.082;2023-04-05T12:39:07;0.80;;;0.80;;
11171;SDS011;5642;50.830;12.082;2023-04-05T12:41:35;0.85;;;0.85;;
11171;SDS011;5642;50.830;12.082;2023-04-05T12:44:10;0.88;;;0.88;;
11171;SDS011;5642;50.830;12.082;2023-04-05T12:46:43;0.90;;;0.90;;
11171;SDS011;5642;50.830;12.082;2023-04-05T12:49:11;1.38;;;0.90;;
11171;SDS011;5642;50.830;12.082;2023-04-05T12:51:41;0.98;;;0.95;;
11171;SDS011;5642;50.830;12.082;2023-04-05T12:54:19;1.25;;;1.00;;
11171;SDS011;5642;50.830;12.082;2023-04-05T12:56:49;0.70;;;0.70;;
11171;SDS011;5642;50.830;12.082;2023-04-05T12:59:17;0.80;;;0.80;;
11171;SDS011;5642;50.830;12.082;2023-04-05T13:01:43;0.82;;;0.82;;
11171;SDS011;5642;50.830;12.082;2023-04-05T13:04:10;1.58;;;1.10;;
11171;SDS011;5642;50.830;12.082;2023-04-05T13:06:36;1.00;;;1.00;;
11171;SDS011;5642;50.830;12.082;2023-04-05T13:09:02;0.85;;;0.85;;
11171;SDS011;5642;50.830;12.082;2023-04-05T13:11:28;1.25;;;1.10;;
11171;SDS011;5642;50.830;12.082;2023-04-05T13:13:55;0.70;;;0.70;;
11171;SDS011;5642;50.830;12.082;2023-04-05T13:16:22;0.85;;;0.82;;
11171;SDS011;5642;50.830;12.082;2023-04-05T13:18:48;0.88;;;0.88;;
11171;SDS011;5642;50.830;12.082;2023-04-05T13:21:14;0.98;;;0.88;;
11171;SDS011;5642;50.830;12.082;2023-04-05T13:23:40;0.90;;;0.90;;
11171;SDS011;5642;50.830;12.082;2023-04-05T13:26:07;0.80;;;0.80;;
11171;SDS011;5642;50.830;12.082;2023-04-05T13:28:34;0.88;;;0.82;;
11171;SDS011;5642;50.830;12.082;2023-04-05T13:31:01;1.00;;;1.00;;
11171;SDS011;5642;50.830;12.082;2023-04-05T13:33:29;1.48;;;1.10;;
11171;SDS011;5642;50.830;12.082;2023-04-05T13:35:55;1.00;;;1.00;;
11171;SDS011;5642;50.830;12.082;2023-04-05T13:38:21;0.95;;;0.93;;
11171;SDS011;5642;50.830;12.082;2023-04-05T13:40:49;1.63;;;1.17;;
11171;SDS011;5642;50.830;12.082;2023-04-05T13:43:15;1.00;;;1.00;;
11171;SDS011;5642;50.830;12.082;2023-04-05T13:45:41;1.73;;;1.20;;
11171;SDS011;5642;50.830;12.082;2023-04-05T13:48:08;1.15;;;1.15;;
11171;SDS011;5642;50.830;12.082;2023-04-05T13:50:35;0.90;;;0.90;;
11171;SDS011;5642;50.830;12.082;2023-04-05T13:53:01;1.00;;;1.00;;
11171;SDS011;5642;50.830;12.082;2023-04-05T13:55:27;1.17;;;1.00;;
11171;SDS011;5642;50.830;12.082;2023-04-05T13:57:53;1.10;;;1.00;;
11171;SDS011;5642;50.830;12.082;2023-04-05T14:00:19;0.90;;;0.90;;
11171;SDS011;5642;50.830;12.082;2023-04-05T14:02:45;1.20;;;1.10;;
11171;SDS011;5642;50.830;12.082;2023-04-05T14:05:11;1.02;;;1.00;;
11171;SDS011;5642;50.830;12.082;2023-04-05T14:07:39;0.90;;;0.90;;
11171;SDS011;5642;50.830;12.082;2023-04-05T14:10:06;1.80;;;1.08;;
11171;SDS011;5642;50.830;12.082;2023-04-05T14:12:32;1.23;;;0.90;;
11171;SDS011;5642;50.830;12.082;2023-04-05T14:14:59;1.27;;;1.13;;
11171;SDS011;5642;50.830;12.082;2023-04-05T14:17:25;1.70;;;1.25;;
11171;SDS011;5642;50.830;12.082;2023-04-05T14:19:51;1.10;;;1.00;;
11171;SDS011;5642;50.830;12.082;2023-04-05T14:22:17;1.30;;;1.20;;
11171;SDS011;5642;50.830;12.082;2023-04-05T14:24:43;1.17;;;1.00;;
11171;SDS011;5642;50.830;12.082;2023-04-05T14:27:09;1.42;;;1.33;;
11171;SDS011;5642;50.830;12.082;2023-04-05T14:29:35;1.45;;;1.17;;
11171;SDS011;5642;50.830;12.082;2023-04-05T14:32:03;0.90;;;0.90;;
11171;SDS011;5642;50.830;12.082;2023-04-05T14:34:30;1.00;;;1.00;;
11171;SDS011;5642;50.830;12.082;2023-04-05T14:36:56;1.00;;;1.00;;
11171;SDS011;5642;50.830;12.082;2023-04-05T14:39:23;1.10;;;1.10;;
11171;SDS011;5642;50.830;12.082;2023-04-05T14:41:49;1.13;;;1.00;;
11171;SDS011;5642;50.830;12.082;2023-04-05T14:44:17;1.00;;;1.00;;
11171;SDS011;5642;50.830;12.082;2023-04-05T14:46:43;0.90;;;0.90;;
11171;SDS011;5642;50.830;12.082;2023-04-05T14:49:09;1.23;;;1.13;;
11171;SDS011;5642;50.830;12.082;2023-04-05T14:51:35;0.90;;;0.90;;
11171;SDS011;5642;50.830;12.082;2023-04-05T14:54:02;0.90;;;0.90;;
11171;SDS011;5642;50.830;12.082;2023-04-05T14:56:28;1.17;;;1.00;;
11171;SDS011;5642;50.830;12.082;2023-04-05T14:58:54;0.90;;;0.90;;
11171;SDS011;5642;50.830;12.082;2023-04-05T15:01:20;1.20;;;1.10;;
11171;SDS011;5642;50.830;12.082;2023-04-05T15:03:47;0.80;;;0.80;;
11171;SDS011;5642;50.830;12.082;2023-04-05T15:06:15;0.90;;;0.90;;
11171;SDS011;5642;50.830;12.082;2023-04-05T15:08:41;1.10;;;1.00;;
11171;SDS011;5642;50.830;12.082;2023-04-05T15:11:08;0.82;;;0.82;;
11171;SDS011;5642;50.830;12.082;2023-04-05T15:13:34;0.93;;;0.93;;
11171;SDS011;5642;50.830;12.082;2023-04-05T15:16:00;1.05;;;0.98;;
11171;SDS011;5642;50.830;12.082;2023-04-05T15:18:26;0.90;;;0.90;;
11171;SDS011;5642;50.830;12.082;2023-04-05T15:20:52;1.10;;;1.00;;
11171;SDS011;5642;50.830;12.082;2023-04-05T15:23:18;1.02;;;1.02;;
11171;SDS011;5642;50.830;12.082;2023-04-05T15:25:45;1.10;;;1.10;;
11171;SDS011;5642;50.830;12.082;2023-04-05T15:28:11;1.00;;;1.00;;
11171;SDS011;5642;50.830;12.082;2023-04-05T15:30:38;0.90;;;0.90;;
11171;SDS011;5642;50.830;12.082;2023-04-05T15:33:04;1.10;;;1.10;;
11171;SDS011;5642;50.830;12.082;2023-04-05T15:35:30;1.35;;;1.25;;
11171;SDS011;5642;50.830;12.082;2023-04-05T15:37:59;1.30;;;1.20;;
11171;SDS011;5642;50.830;12.082;2023-04-05T15:40:26;1.13;;;1.10;;
11171;SDS011;5642;50.830;12.082;2023-04-05T15:42:53;1.20;;;1.10;;
11171;SDS011;5642;50.830;12.082;2023-04-05T15:45:20;1.10;;;1.10;;